sensor_id;sensor_type;location;lat;lon;timestamp;P1;durP1;ratioP1;P2;durP2;ratioP2
36221;SDS011;22266;52.340;4.962;2022-10-16T00:01:10;3.50;;;1.75;;
36221;SDS011;22266;52.340;4.962;2022-10-16T00:03:40;2.00;;;2.00;;
36221;SDS011;22266;52.340;4.962;2022-10-16T00:06:08;2.00;;;2.00;;
36221;SDS011;22266;52.340;4.962;2022-10-16T00:08:36;2.00;;;2.00;;
36221;SDS011;22266;52.340;4.962;2022-10-16T00:11:07;1.00;;;1.00;;
36221;SDS011;22266;52.340;4.962;2022-10-16T00:13:42;1.00;;;1.00;;
36221;SDS011;22266;52.340;4.962;2022-10-16T00:16:10;2.67;;;1.00;;
36221;SDS011;22266;52.340;4.962;2022-10-16T00:18:37;1.00;;;1.00;;
36221;SDS011;22266;52.340;4.962;2022-10-16T00:21:05;2.00;;;2.00;;
36221;SDS011;22266;52.340;4.962;2022-10-16T00:23:37;1.50;;;1.50;;
36221;SDS011;22266;52.340;4.962;2022-10-16T00:26:04;2.00;;;2.00;;
36221;SDS011;22266;52.340;4.962;2022-10-16T00:28:34;3.33;;;2.00;;
36221;SDS011;22266;52.340;4.962;2022-10-16T00:31:05;3.00;;;3.00;;
36221;SDS011;22266;52.340;4.962;2022-10-16T00:33:33;1.00;;;1.00;;
36221;SDS011;22266;52.340;4.962;2022-10-16T00:36:00;1.00;;;1.00;;
36221;SDS011;22266;52.340;4.962;2022-10-16T00:38:27;2.75;;;2.75;;
36221;SDS011;22266;52.340;4.962;2022-10-16T00:40:53;7.33;;;5.67;;
36221;SDS011;22266;52.340;4.962;2022-10-16T00:43:37;1.67;;;1.67;;
36221;SDS011;22266;52.340;4.962;2022-10-16T00:46:19;2.00;;;2.00;;
36221;SDS011;22266;52.340;4.962;2022-10-16T00:51:34;2.00;;;2.00;;
36221;SDS011;22266;52.340;4.962;2022-10-16T00:54:03;2.00;;;2.00;;
36221;SDS011;22266;52.340;4.962;2022-10-16T00:56:34;3.67;;;3.67;;
36221;SDS011;22266;52.340;4.962;2022-10-16T00:59:01;3.33;;;3.33;;
36221;SDS011;22266;52.340;4.962;2022-10-16T01:01:32;3.67;;;3.67;;
36221;SDS011;22266;52.340;4.962;2022-10-16T01:03:59;3.00;;;3.00;;
36221;SDS011;22266;52.340;4.962;2022-10-16T01:06:29;9.33;;;9.00;;
36221;SDS011;22266;52.340;4.962;2022-10-16T01:09:17;14.00;;;10.67;;
36221;SDS011;22266;52.340;4.962;2022-10-16T01:14:30;7.00;;;6.00;;
36221;SDS011;22266;52.340;4.962;2022-10-16T01:17:07;8.00;;;8.00;;
36221;SDS011;22266;52.340;4.962;2022-10-16T01:25:54;1.00;;;1.00;;
36221;SDS011;22266;52.340;4.962;2022-10-16T01:28:32;4.33;;;3.67;;
36221;SDS011;22266;52.340;4.962;2022-10-16T01:31:03;4.67;;;4.00;;
36221;SDS011;22266;52.340;4.962;2022-10-16T01:33:34;2.00;;;2.00;;
36221;SDS011;22266;52.340;4.962;2022-10-16T01:36:14;2.00;;;2.00;;
36221;SDS011;22266;52.340;4.962;2022-10-16T01:38:44;0.00;;;0.00;;
36221;SDS011;22266;52.340;4.962;2022-10-16T01:41:15;2.33;;;2.00;;
36221;SDS011;22266;52.340;4.962;2022-10-16T01:43:57;1.00;;;1.00;;
36221;SDS011;22266;52.340;4.962;2022-10-16T01:46:28;3.00;;;1.00;;
36221;SDS011;22266;52.340;4.962;2022-10-16T01:48:58;2.00;;;2.00;;
36221;SDS011;22266;52.340;4.962;2022-10-16T01:51:26;2.00;;;2.00;;
36221;SDS011;22266;52.340;4.962;2022-10-16T01:53:56;3.00;;;2.00;;
36221;SDS011;22266;52.340;4.962;2022-10-16T01:56:26;1.33;;;1.00;;
36221;SDS011;22266;52.340;4.962;2022-10-16T01:59:05;1.00;;;1.00;;
36221;SDS011;22266;52.340;4.962;2022-10-16T02:01:36;3.00;;;2.00;;
36221;SDS011;22266;52.340;4.962;2022-10-16T02:04:28;1.00;;;1.00;;
36221;SDS011;22266;52.340;4.962;2022-10-16T02:06:57;1.67;;;1.67;;
36221;SDS011;22266;52.340;4.962;2022-10-16T02:09:24;1.67;;;1.67;;
36221;SDS011;22266;52.340;4.962;2022-10-16T02:11:52;2.00;;;2.00;;
36221;SDS011;22266;52.340;4.962;2022-10-16T02:14:23;3.00;;;1.25;;
36221;SDS011;22266;52.340;4.962;2022-10-16T02:16:50;2.33;;;1.00;;
36221;SDS011;22266;52.340;4.962;2022-10-16T02:19:17;1.67;;;1.00;;
36221;SDS011;22266;52.340;4.962;2022-10-16T02:21:49;1.00;;;1.00;;
36221;SDS011;22266;52.340;4.962;2022-10-16T02:24:25;2.00;;;2.00;;
36221;SDS011;22266;52.340;4.962;2022-10-16T02:27:10;4.67;;;3.33;;
36221;SDS011;22266;52.340;4.962;2022-10-16T02:29:42;2.00;;;1.00;;
36221;SDS011;22266;52.340;4.962;2022-10-16T02:32:17;2.00;;;1.33;;
36221;SDS011;22266;52.340;4.962;2022-10-16T02:34:48;2.00;;;2.00;;
36221;SDS011;22266;52.340;4.962;2022-10-16T02:37:16;1.00;;;1.00;;
36221;SDS011;22266;52.340;4.962;2022-10-16T02:39:44;0.67;;;0.67;;
36221;SDS011;22266;52.340;4.962;2022-10-16T02:42:14;2.00;;;2.00;;
36221;SDS011;22266;52.340;4.962;2022-10-16T02:44:41;1.00;;;0.33;;
36221;SDS011;22266;52.340;4.962;2022-10-16T02:47:07;3.67;;;1.00;;
36221;SDS011;22266;52.340;4.962;2022-10-16T02:49:34;2.00;;;2.00;;
36221;SDS011;22266;52.340;4.962;2022-10-16T02:52:00;4.33;;;2.33;;
36221;SDS011;22266;52.340;4.962;2022-10-16T02:54:27;2.00;;;2.00;;
36221;SDS011;22266;52.340;4.962;2022-10-16T02:56:53;4.00;;;1.33;;
36221;SDS011;22266;52.340;4.962;2022-10-16T02:59:20;1.00;;;1.00;;
36221;SDS011;22266;52.340;4.962;2022-10-16T03:01:47;2.00;;;1.33;;
36221;SDS011;22266;52.340;4.962;2022-10-16T03:04:13;1.00;;;1.00;;
36221;SDS011;22266;52.340;4.962;2022-10-16T03:06:39;3.00;;;2.00;;
36221;SDS011;22266;52.340;4.962;2022-10-16T03:09:06;5.00;;;3.00;;
36221;SDS011;22266;52.340;4.962;2022-10-16T03:11:32;5.67;;;3.00;;
36221;SDS011;22266;52.340;4.962;2022-10-16T03:13:59;3.00;;;3.00;;
36221;SDS011;22266;52.340;4.962;2022-10-16T03:16:25;6.00;;;4.33;;
36221;SDS011;22266;52.340;4.962;2022-10-16T03:18:52;5.00;;;3.00;;
36221;SDS011;22266;52.340;4.962;2022-10-16T03:21:18;5.33;;;3.00;;
36221;SDS011;22266;52.340;4.962;2022-10-16T03:23:44;2.00;;;2.00;;
36221;SDS011;22266;52.340;4.962;2022-10-16T03:26:11;9.00;;;7.33;;
36221;SDS011;22266;52.340;4.962;2022-10-16T03:28:37;3.67;;;3.67;;
36221;SDS011;22266;52.340;4.962;2022-10-16T03:31:04;5.00;;;5.00;;
36221;SDS011;22266;52.340;4.962;2022-10-16T03:33:30;4.00;;;4.00;;
36221;SDS011;22266;52.340;4.962;2022-10-16T03:35:57;2.00;;;2.00;;
36221;SDS011;22266;52.340;4.962;2022-10-16T03:38:24;5.00;;;5.00;;
36221;SDS011;22266;52.340;4.962;2022-10-16T03:40:50;4.33;;;4.33;;
36221;SDS011;22266;52.340;4.962;2022-10-16T03:43:17;2.00;;;2.00;;
36221;SDS011;22266;52.340;4.962;2022-10-16T03:45:43;6.00;;;6.00;;
36221;SDS011;22266;52.340;4.962;2022-10-16T03:48:10;2.00;;;2.00;;
36221;SDS011;22266;52.340;4.962;2022-10-16T03:50:36;4.33;;;4.33;;
36221;SDS011;22266;52.340;4.962;2022-10-16T03:53:03;5.33;;;5.33;;
36221;SDS011;22266;52.340;4.962;2022-10-16T03:55:30;2.00;;;2.00;;
36221;SDS011;22266;52.340;4.962;2022-10-16T03:57:56;2.00;;;2.00;;
36221;SDS011;22266;52.340;4.962;2022-10-16T04:00:22;2.00;;;2.00;;
36221;SDS011;22266;52.340;4.962;2022-10-16T04:02:49;3.33;;;2.00;;
36221;SDS011;22266;52.340;4.962;2022-10-16T04:05:15;4.67;;;4.67;;
36221;SDS011;22266;52.340;4.962;2022-10-16T04:07:42;5.33;;;2.67;;
36221;SDS011;22266;52.340;4.962;2022-10-16T04:10:08;5.00;;;2.67;;
36221;SDS011;22266;52.340;4.962;2022-10-16T04:12:35;4.00;;;4.00;;
36221;SDS011;22266;52.340;4.962;2022-10-16T04:15:02;1.00;;;1.00;;
36221;SDS011;22266;52.340;4.962;2022-10-16T04:17:28;3.00;;;3.00;;
36221;SDS011;22266;52.340;4.962;2022-10-16T04:19:55;2.00;;;2.00;;
36221;SDS011;22266;52.340;4.962;2022-10-16T04:22:21;2.00;;;2.00;;
36221;SDS011;22266;52.340;4.962;2022-10-16T04:24:47;1.00;;;1.00;;
36221;SDS011;22266;52.340;4.962;2022-10-16T04:27:14;2.00;;;2.00;;
36221;SDS011;22266;52.340;4.962;2022-10-16T04:29:40;2.00;;;2.00;;
36221;SDS011;22266;52.340;4.962;2022-10-16T04:32:07;3.00;;;2.00;;
36221;SDS011;22266;52.340;4.962;2022-10-16T04:34:35;3.00;;;3.00;;
36221;SDS011;22266;52.340;4.962;2022-10-16T04:37:01;2.00;;;2.00;;
36221;SDS011;22266;52.340;4.962;2022-10-16T04:39:27;2.00;;;1.67;;
36221;SDS011;22266;52.340;4.962;2022-10-16T04:41:54;2.00;;;1.00;;
36221;SDS011;22266;52.340;4.962;2022-10-16T04:44:20;1.33;;;1.33;;
36221;SDS011;22266;52.340;4.962;2022-10-16T04:46:46;0.67;;;0.00;;
36221;SDS011;22266;52.340;4.962;2022-10-16T04:49:13;1.67;;;1.67;;
36221;SDS011;22266;52.340;4.962;2022-10-16T04:51:39;3.00;;;2.67;;
36221;SDS011;22266;52.340;4.962;2022-10-16T04:54:06;4.67;;;2.00;;
36221;SDS011;22266;52.340;4.962;2022-10-16T04:56:32;1.67;;;1.67;;
36221;SDS011;22266;52.340;4.962;2022-10-16T04:58:59;2.33;;;1.00;;
36221;SDS011;22266;52.340;4.962;2022-10-16T05:03:54;2.00;;;2.00;;
36221;SDS011;22266;52.340;4.962;2022-10-16T05:06:21;4.00;;;2.33;;
36221;SDS011;22266;52.340;4.962;2022-10-16T05:08:47;2.33;;;1.00;;
36221;SDS011;22266;52.340;4.962;2022-10-16T05:11:14;2.33;;;1.67;;
36221;SDS011;22266;52.340;4.962;2022-10-16T05:13:40;1.33;;;1.33;;
36221;SDS011;22266;52.340;4.962;2022-10-16T05:16:06;1.00;;;1.00;;
36221;SDS011;22266;52.340;4.962;2022-10-16T05:18:33;2.00;;;2.00;;
36221;SDS011;22266;52.340;4.962;2022-10-16T05:20:59;1.00;;;1.00;;
36221;SDS011;22266;52.340;4.962;2022-10-16T05:23:26;2.00;;;2.00;;
36221;SDS011;22266;52.340;4.962;2022-10-16T05:25:53;2.00;;;2.00;;
36221;SDS011;22266;52.340;4.962;2022-10-16T05:28:21;1.00;;;1.00;;
36221;SDS011;22266;52.340;4.962;2022-10-16T05:30:47;1.00;;;1.00;;
36221;SDS011;22266;52.340;4.962;2022-10-16T05:33:14;2.00;;;1.00;;
36221;SDS011;22266;52.340;4.962;2022-10-16T05:35:40;1.00;;;1.00;;
36221;SDS011;22266;52.340;4.962;2022-10-16T05:38:07;1.00;;;1.00;;
36221;SDS011;22266;52.340;4.962;2022-10-16T05:40:33;4.00;;;2.00;;
36221;SDS011;22266;52.340;4.962;2022-10-16T05:43:00;1.00;;;1.00;;
36221;SDS011;22266;52.340;4.962;2022-10-16T05:45:26;1.33;;;1.33;;
36221;SDS011;22266;52.340;4.962;2022-10-16T05:47:53;2.00;;;1.00;;
36221;SDS011;22266;52.340;4.962;2022-10-16T05:50:19;2.00;;;2.00;;
36221;SDS011;22266;52.340;4.962;2022-10-16T05:52:46;2.00;;;2.00;;
36221;SDS011;22266;52.340;4.962;2022-10-16T05:55:12;1.67;;;1.67;;
36221;SDS011;22266;52.340;4.962;2022-10-16T05:57:38;1.00;;;1.00;;
36221;SDS011;22266;52.340;4.962;2022-10-16T06:00:05;2.00;;;2.00;;
36221;SDS011;22266;52.340;4.962;2022-10-16T06:02:37;1.00;;;1.00;;
36221;SDS011;22266;52.340;4.962;2022-10-16T06:05:04;3.00;;;3.00;;
36221;SDS011;22266;52.340;4.962;2022-10-16T06:07:33;4.67;;;2.33;;
36221;SDS011;22266;52.340;4.962;2022-10-16T06:10:00;2.00;;;2.00;;
36221;SDS011;22266;52.340;4.962;2022-10-16T06:12:27;2.00;;;2.00;;
36221;SDS011;22266;52.340;4.962;2022-10-16T06:14:53;1.67;;;1.33;;
36221;SDS011;22266;52.340;4.962;2022-10-16T06:17:20;3.00;;;2.33;;
36221;SDS011;22266;52.340;4.962;2022-10-16T06:19:46;2.00;;;2.00;;
36221;SDS011;22266;52.340;4.962;2022-10-16T06:22:12;1.00;;;1.00;;
36221;SDS011;22266;52.340;4.962;2022-10-16T06:24:39;1.33;;;1.33;;
36221;SDS011;22266;52.340;4.962;2022-10-16T06:27:05;2.67;;;2.00;;
36221;SDS011;22266;52.340;4.962;2022-10-16T06:29:32;1.00;;;1.00;;
36221;SDS011;22266;52.340;4.962;2022-10-16T06:31:58;2.67;;;2.67;;
36221;SDS011;22266;52.340;4.962;2022-10-16T06:34:25;1.33;;;1.33;;
36221;SDS011;22266;52.340;4.962;2022-10-16T06:36:51;2.33;;;2.33;;
36221;SDS011;22266;52.340;4.962;2022-10-16T06:39:18;2.00;;;2.00;;
36221;SDS011;22266;52.340;4.962;2022-10-16T06:41:44;2.33;;;2.00;;
36221;SDS011;22266;52.340;4.962;2022-10-16T06:44:14;3.00;;;3.00;;
36221;SDS011;22266;52.340;4.962;2022-10-16T06:46:40;2.00;;;2.00;;
36221;SDS011;22266;52.340;4.962;2022-10-16T06:49:07;1.33;;;1.33;;
36221;SDS011;22266;52.340;4.962;2022-10-16T06:51:33;1.00;;;1.00;;
36221;SDS011;22266;52.340;4.962;2022-10-16T06:54:07;3.00;;;3.00;;
36221;SDS011;22266;52.340;4.962;2022-10-16T06:56:33;3.67;;;2.00;;
36221;SDS011;22266;52.340;4.962;2022-10-16T06:59:00;2.00;;;1.00;;
36221;SDS011;22266;52.340;4.962;2022-10-16T07:01:27;3.67;;;3.67;;
36221;SDS011;22266;52.340;4.962;2022-10-16T07:03:54;2.00;;;2.00;;
36221;SDS011;22266;52.340;4.962;2022-10-16T07:06:21;2.33;;;2.33;;
36221;SDS011;22266;52.340;4.962;2022-10-16T07:08:50;4.00;;;3.33;;
36221;SDS011;22266;52.340;4.962;2022-10-16T07:11:17;4.67;;;2.67;;
36221;SDS011;22266;52.340;4.962;2022-10-16T07:13:45;2.67;;;1.67;;
36221;SDS011;22266;52.340;4.962;2022-10-16T07:16:20;2.33;;;2.33;;
36221;SDS011;22266;52.340;4.962;2022-10-16T07:18:49;3.00;;;3.00;;
36221;SDS011;22266;52.340;4.962;2022-10-16T07:21:23;4.67;;;2.00;;
36221;SDS011;22266;52.340;4.962;2022-10-16T07:23:52;1.33;;;1.33;;
36221;SDS011;22266;52.340;4.962;2022-10-16T07:26:19;1.00;;;1.00;;
36221;SDS011;22266;52.340;4.962;2022-10-16T07:28:46;3.67;;;2.00;;
36221;SDS011;22266;52.340;4.962;2022-10-16T07:31:13;1.67;;;1.67;;
36221;SDS011;22266;52.340;4.962;2022-10-16T07:33:41;2.67;;;2.67;;
36221;SDS011;22266;52.340;4.962;2022-10-16T07:36:10;4.00;;;3.00;;
36221;SDS011;22266;52.340;4.962;2022-10-16T07:38:41;2.00;;;2.00;;
36221;SDS011;22266;52.340;4.962;2022-10-16T07:41:09;2.00;;;1.67;;
36221;SDS011;22266;52.340;4.962;2022-10-16T07:43:37;2.33;;;0.33;;
36221;SDS011;22266;52.340;4.962;2022-10-16T07:46:03;2.33;;;1.33;;
36221;SDS011;22266;52.340;4.962;2022-10-16T07:48:32;0.00;;;0.00;;
36221;SDS011;22266;52.340;4.962;2022-10-16T07:51:00;1.00;;;1.00;;
36221;SDS011;22266;52.340;4.962;2022-10-16T07:53:29;1.00;;;1.00;;
36221;SDS011;22266;52.340;4.962;2022-10-16T07:56:03;1.00;;;1.00;;
36221;SDS011;22266;52.340;4.962;2022-10-16T07:58:32;2.00;;;2.00;;
36221;SDS011;22266;52.340;4.962;2022-10-16T08:01:02;2.67;;;1.67;;
36221;SDS011;22266;52.340;4.962;2022-10-16T08:03:31;2.33;;;2.33;;
36221;SDS011;22266;52.340;4.962;2022-10-16T08:05:57;0.67;;;0.67;;
36221;SDS011;22266;52.340;4.962;2022-10-16T08:08:24;2.33;;;2.00;;
36221;SDS011;22266;52.340;4.962;2022-10-16T08:10:51;3.00;;;1.67;;
36221;SDS011;22266;52.340;4.962;2022-10-16T08:13:18;1.00;;;1.00;;
36221;SDS011;22266;52.340;4.962;2022-10-16T08:15:45;1.67;;;1.00;;
36221;SDS011;22266;52.340;4.962;2022-10-16T08:18:13;2.00;;;1.00;;
36221;SDS011;22266;52.340;4.962;2022-10-16T08:20:41;2.67;;;2.67;;
36221;SDS011;22266;52.340;4.962;2022-10-16T08:23:11;2.00;;;1.00;;
36221;SDS011;22266;52.340;4.962;2022-10-16T08:25:39;3.33;;;2.33;;
36221;SDS011;22266;52.340;4.962;2022-10-16T08:28:07;2.00;;;2.00;;
36221;SDS011;22266;52.340;4.962;2022-10-16T08:30:35;1.00;;;1.00;;
36221;SDS011;22266;52.340;4.962;2022-10-16T08:33:02;5.00;;;3.00;;
36221;SDS011;22266;52.340;4.962;2022-10-16T08:35:28;2.00;;;2.00;;
36221;SDS011;22266;52.340;4.962;2022-10-16T08:37:55;1.00;;;1.00;;
36221;SDS011;22266;52.340;4.962;2022-10-16T08:40:24;2.00;;;2.00;;
36221;SDS011;22266;52.340;4.962;2022-10-16T08:45:40;3.00;;;2.00;;
36221;SDS011;22266;52.340;4.962;2022-10-16T08:51:09;2.00;;;2.00;;
36221;SDS011;22266;52.340;4.962;2022-10-16T08:53:53;2.33;;;1.67;;
36221;SDS011;22266;52.340;4.962;2022-10-16T08:56:22;2.00;;;2.00;;
36221;SDS011;22266;52.340;4.962;2022-10-16T08:58:51;2.00;;;2.00;;
36221;SDS011;22266;52.340;4.962;2022-10-16T09:01:23;6.00;;;3.00;;
36221;SDS011;22266;52.340;4.962;2022-10-16T09:07:08;2.00;;;2.00;;
36221;SDS011;22266;52.340;4.962;2022-10-16T09:12:37;2.00;;;2.00;;
36221;SDS011;22266;52.340;4.962;2022-10-16T09:17:59;0.75;;;0.75;;
36221;SDS011;22266;52.340;4.962;2022-10-16T09:23:27;2.25;;;2.25;;
36221;SDS011;22266;52.340;4.962;2022-10-16T09:25:55;1.25;;;1.00;;
36221;SDS011;22266;52.340;4.962;2022-10-16T09:28:24;1.33;;;1.00;;
36221;SDS011;22266;52.340;4.962;2022-10-16T09:30:51;0.00;;;0.00;;
36221;SDS011;22266;52.340;4.962;2022-10-16T09:33:19;2.25;;;2.00;;
36221;SDS011;22266;52.340;4.962;2022-10-16T09:35:53;1.25;;;1.25;;
36221;SDS011;22266;52.340;4.962;2022-10-16T09:38:28;2.00;;;2.00;;
36221;SDS011;22266;52.340;4.962;2022-10-16T09:40:59;3.50;;;1.75;;
36221;SDS011;22266;52.340;4.962;2022-10-16T09:43:36;2.00;;;2.00;;
36221;SDS011;22266;52.340;4.962;2022-10-16T09:46:19;1.75;;;1.00;;
36221;SDS011;22266;52.340;4.962;2022-10-16T09:48:53;2.25;;;1.50;;
36221;SDS011;22266;52.340;4.962;2022-10-16T09:51:26;1.50;;;1.25;;
36221;SDS011;22266;52.340;4.962;2022-10-16T09:56:33;3.25;;;1.25;;
36221;SDS011;22266;52.340;4.962;2022-10-16T09:59:22;1.00;;;1.00;;
36221;SDS011;22266;52.340;4.962;2022-10-16T10:01:53;1.50;;;1.00;;
36221;SDS011;22266;52.340;4.962;2022-10-16T10:04:22;2.00;;;1.00;;
36221;SDS011;22266;52.340;4.962;2022-10-16T10:06:50;1.50;;;1.00;;
36221;SDS011;22266;52.340;4.962;2022-10-16T10:09:37;2.50;;;2.00;;
36221;SDS011;22266;52.340;4.962;2022-10-16T10:12:05;5.50;;;2.75;;
36221;SDS011;22266;52.340;4.962;2022-10-16T10:14:47;1.25;;;1.25;;
36221;SDS011;22266;52.340;4.962;2022-10-16T10:17:17;1.00;;;1.00;;
36221;SDS011;22266;52.340;4.962;2022-10-16T10:22:32;1.00;;;1.00;;
36221;SDS011;22266;52.340;4.962;2022-10-16T10:35:56;0.25;;;0.25;;
36221;SDS011;22266;52.340;4.962;2022-10-16T10:43:52;1.50;;;1.00;;
36221;SDS011;22266;52.340;4.962;2022-10-16T10:55:11;1.00;;;1.00;;
36221;SDS011;22266;52.340;4.962;2022-10-16T11:01:16;2.25;;;1.75;;
36221;SDS011;22266;52.340;4.962;2022-10-16T11:06:57;0.00;;;0.00;;
36221;SDS011;22266;52.340;4.962;2022-10-16T11:09:30;1.00;;;1.00;;
36221;SDS011;22266;52.340;4.962;2022-10-16T11:12:07;0.00;;;0.00;;
36221;SDS011;22266;52.340;4.962;2022-10-16T11:14:46;0.75;;;0.50;;
36221;SDS011;22266;52.340;4.962;2022-10-16T11:17:25;2.00;;;1.00;;
36221;SDS011;22266;52.340;4.962;2022-10-16T11:22:46;0.00;;;0.00;;
36221;SDS011;22266;52.340;4.962;2022-10-16T11:25:21;0.50;;;0.50;;
36221;SDS011;22266;52.340;4.962;2022-10-16T11:30:28;0.50;;;0.50;;
36221;SDS011;22266;52.340;4.962;2022-10-16T11:38:12;0.00;;;0.00;;
36221;SDS011;22266;52.340;4.962;2022-10-16T11:40:45;0.25;;;0.25;;
36221;SDS011;22266;52.340;4.962;2022-10-16T11:43:22;1.00;;;0.00;;
36221;SDS011;22266;52.340;4.962;2022-10-16T11:45:55;0.00;;;0.00;;
36221;SDS011;22266;52.340;4.962;2022-10-16T11:48:32;0.00;;;0.00;;
36221;SDS011;22266;52.340;4.962;2022-10-16T11:51:25;0.00;;;0.00;;
36221;SDS011;22266;52.340;4.962;2022-10-16T11:57:12;1.00;;;0.00;;
36221;SDS011;22266;52.340;4.962;2022-10-16T12:02:48;1.25;;;0.00;;
36221;SDS011;22266;52.340;4.962;2022-10-16T12:10:39;0.00;;;0.00;;
36221;SDS011;22266;52.340;4.962;2022-10-16T12:18:40;0.00;;;0.00;;
36221;SDS011;22266;52.340;4.962;2022-10-16T12:21:09;0.00;;;0.00;;
36221;SDS011;22266;52.340;4.962;2022-10-16T12:23:49;1.50;;;0.50;;
36221;SDS011;22266;52.340;4.962;2022-10-16T12:26:25;0.00;;;0.00;;
36221;SDS011;22266;52.340;4.962;2022-10-16T12:28:54;2.00;;;0.25;;
36221;SDS011;22266;52.340;4.962;2022-10-16T12:31:22;0.00;;;0.00;;
36221;SDS011;22266;52.340;4.962;2022-10-16T12:33:59;0.75;;;0.00;;
36221;SDS011;22266;52.340;4.962;2022-10-16T12:36:30;0.00;;;0.00;;
36221;SDS011;22266;52.340;4.962;2022-10-16T12:38:59;0.00;;;0.00;;
36221;SDS011;22266;52.340;4.962;2022-10-16T12:41:28;0.00;;;0.00;;
36221;SDS011;22266;52.340;4.962;2022-10-16T12:43:57;0.50;;;0.25;;
36221;SDS011;22266;52.340;4.962;2022-10-16T12:51:41;0.00;;;0.00;;
36221;SDS011;22266;52.340;4.962;2022-10-16T12:54:12;1.25;;;0.00;;
36221;SDS011;22266;52.340;4.962;2022-10-16T13:08:39;0.00;;;0.00;;
36221;SDS011;22266;52.340;4.962;2022-10-16T13:11:27;0.00;;;0.00;;
36221;SDS011;22266;52.340;4.962;2022-10-16T13:14:14;0.00;;;0.00;;
36221;SDS011;22266;52.340;4.962;2022-10-16T13:19:36;0.00;;;0.00;;
36221;SDS011;22266;52.340;4.962;2022-10-16T13:25:26;1.00;;;0.50;;
36221;SDS011;22266;52.340;4.962;2022-10-16T13:28:04;0.00;;;0.00;;
36221;SDS011;22266;52.340;4.962;2022-10-16T13:30:36;0.75;;;0.75;;
36221;SDS011;22266;52.340;4.962;2022-10-16T13:33:04;0.25;;;0.25;;
36221;SDS011;22266;52.340;4.962;2022-10-16T13:35:34;1.25;;;0.00;;
36221;SDS011;22266;52.340;4.962;2022-10-16T13:38:24;0.00;;;0.00;;
36221;SDS011;22266;52.340;4.962;2022-10-16T13:48:37;0.00;;;0.00;;
36221;SDS011;22266;52.340;4.962;2022-10-16T13:53:40;0.00;;;0.00;;
36221;SDS011;22266;52.340;4.962;2022-10-16T13:56:11;1.25;;;1.00;;
36221;SDS011;22266;52.340;4.962;2022-10-16T13:58:40;0.00;;;0.00;;
36221;SDS011;22266;52.340;4.962;2022-10-16T14:04:15;0.00;;;0.00;;
36221;SDS011;22266;52.340;4.962;2022-10-16T14:06:43;2.00;;;0.00;;
36221;SDS011;22266;52.340;4.962;2022-10-16T14:11:56;0.00;;;0.00;;
36221;SDS011;22266;52.340;4.962;2022-10-16T14:14:26;0.00;;;0.00;;
36221;SDS011;22266;52.340;4.962;2022-10-16T14:16:58;1.25;;;0.00;;
36221;SDS011;22266;52.340;4.962;2022-10-16T14:19:25;0.75;;;0.00;;
36221;SDS011;22266;52.340;4.962;2022-10-16T14:21:55;0.00;;;0.00;;
36221;SDS011;22266;52.340;4.962;2022-10-16T14:24:26;0.50;;;0.00;;
36221;SDS011;22266;52.340;4.962;2022-10-16T14:26:58;1.00;;;0.00;;
36221;SDS011;22266;52.340;4.962;2022-10-16T14:29:25;0.00;;;0.00;;
36221;SDS011;22266;52.340;4.962;2022-10-16T14:32:00;1.00;;;0.00;;
36221;SDS011;22266;52.340;4.962;2022-10-16T14:34:29;0.50;;;0.00;;
36221;SDS011;22266;52.340;4.962;2022-10-16T14:37:00;0.00;;;0.00;;
36221;SDS011;22266;52.340;4.962;2022-10-16T14:39:38;1.75;;;0.00;;
36221;SDS011;22266;52.340;4.962;2022-10-16T14:42:11;0.00;;;0.00;;
36221;SDS011;22266;52.340;4.962;2022-10-16T14:44:42;0.75;;;0.00;;
36221;SDS011;22266;52.340;4.962;2022-10-16T14:47:12;0.75;;;0.50;;
36221;SDS011;22266;52.340;4.962;2022-10-16T14:49:42;0.25;;;0.00;;
36221;SDS011;22266;52.340;4.962;2022-10-16T14:52:10;2.00;;;0.00;;
36221;SDS011;22266;52.340;4.962;2022-10-16T14:54:38;0.00;;;0.00;;
36221;SDS011;22266;52.340;4.962;2022-10-16T14:57:04;0.00;;;0.00;;
36221;SDS011;22266;52.340;4.962;2022-10-16T14:59:39;0.00;;;0.00;;
36221;SDS011;22266;52.340;4.962;2022-10-16T15:07:48;0.00;;;0.00;;
36221;SDS011;22266;52.340;4.962;2022-10-16T15:10:21;0.00;;;0.00;;
36221;SDS011;22266;52.340;4.962;2022-10-16T15:12:49;0.00;;;0.00;;
36221;SDS011;22266;52.340;4.962;2022-10-16T15:15:21;0.00;;;0.00;;
36221;SDS011;22266;52.340;4.962;2022-10-16T15:17:50;0.75;;;0.00;;
36221;SDS011;22266;52.340;4.962;2022-10-16T15:20:22;0.50;;;0.50;;
36221;SDS011;22266;52.340;4.962;2022-10-16T15:22:49;1.00;;;1.00;;
36221;SDS011;22266;52.340;4.962;2022-10-16T15:28:03;0.00;;;0.00;;
36221;SDS011;22266;52.340;4.962;2022-10-16T15:30:30;0.00;;;0.00;;
36221;SDS011;22266;52.340;4.962;2022-10-16T15:33:00;0.00;;;0.00;;
36221;SDS011;22266;52.340;4.962;2022-10-16T15:35:28;1.00;;;0.00;;
36221;SDS011;22266;52.340;4.962;2022-10-16T15:37:54;0.00;;;0.00;;
36221;SDS011;22266;52.340;4.962;2022-10-16T15:40:21;0.00;;;0.00;;
36221;SDS011;22266;52.340;4.962;2022-10-16T15:42:50;0.00;;;0.00;;
36221;SDS011;22266;52.340;4.962;2022-10-16T15:45:16;0.00;;;0.00;;
36221;SDS011;22266;52.340;4.962;2022-10-16T15:47:45;0.00;;;0.00;;
36221;SDS011;22266;52.340;4.962;2022-10-16T15:50:12;1.00;;;0.00;;
36221;SDS011;22266;52.340;4.962;2022-10-16T15:52:40;0.50;;;0.00;;
36221;SDS011;22266;52.340;4.962;2022-10-16T15:55:08;0.50;;;0.00;;
36221;SDS011;22266;52.340;4.962;2022-10-16T15:57:36;0.00;;;0.00;;
36221;SDS011;22266;52.340;4.962;2022-10-16T16:00:07;0.00;;;0.00;;
36221;SDS011;22266;52.340;4.962;2022-10-16T16:02:39;0.00;;;0.00;;
36221;SDS011;22266;52.340;4.962;2022-10-16T16:05:07;0.00;;;0.00;;
36221;SDS011;22266;52.340;4.962;2022-10-16T16:07:35;0.00;;;0.00;;
36221;SDS011;22266;52.340;4.962;2022-10-16T16:10:03;0.00;;;0.00;;
36221;SDS011;22266;52.340;4.962;2022-10-16T16:12:31;3.00;;;1.00;;
36221;SDS011;22266;52.340;4.962;2022-10-16T16:14:58;0.00;;;0.00;;
36221;SDS011;22266;52.340;4.962;2022-10-16T16:17:31;1.00;;;1.00;;
36221;SDS011;22266;52.340;4.962;2022-10-16T16:19:58;0.25;;;0.25;;
36221;SDS011;22266;52.340;4.962;2022-10-16T16:22:24;1.00;;;1.00;;
36221;SDS011;22266;52.340;4.962;2022-10-16T16:24:51;0.50;;;0.50;;
36221;SDS011;22266;52.340;4.962;2022-10-16T16:27:18;1.00;;;1.00;;
36221;SDS011;22266;52.340;4.962;2022-10-16T16:29:46;1.75;;;1.00;;
36221;SDS011;22266;52.340;4.962;2022-10-16T16:32:13;1.00;;;1.00;;
36221;SDS011;22266;52.340;4.962;2022-10-16T16:34:39;1.00;;;1.00;;
36221;SDS011;22266;52.340;4.962;2022-10-16T16:37:06;0.75;;;0.75;;
36221;SDS011;22266;52.340;4.962;2022-10-16T16:39:32;0.50;;;0.50;;
36221;SDS011;22266;52.340;4.962;2022-10-16T16:41:59;2.00;;;1.00;;
36221;SDS011;22266;52.340;4.962;2022-10-16T16:44:25;0.00;;;0.00;;
36221;SDS011;22266;52.340;4.962;2022-10-16T16:46:52;0.75;;;0.00;;
36221;SDS011;22266;52.340;4.962;2022-10-16T16:49:19;2.00;;;0.25;;
36221;SDS011;22266;52.340;4.962;2022-10-16T16:51:45;1.00;;;1.00;;
36221;SDS011;22266;52.340;4.962;2022-10-16T16:54:12;1.00;;;1.00;;
36221;SDS011;22266;52.340;4.962;2022-10-16T16:56:40;1.00;;;0.00;;
36221;SDS011;22266;52.340;4.962;2022-10-16T16:59:15;1.00;;;1.00;;
36221;SDS011;22266;52.340;4.962;2022-10-16T17:01:47;0.00;;;0.00;;
36221;SDS011;22266;52.340;4.962;2022-10-16T17:04:21;1.00;;;1.00;;
36221;SDS011;22266;52.340;4.962;2022-10-16T17:06:48;1.00;;;0.25;;
36221;SDS011;22266;52.340;4.962;2022-10-16T17:09:14;0.00;;;0.00;;
36221;SDS011;22266;52.340;4.962;2022-10-16T17:11:41;0.75;;;0.75;;
36221;SDS011;22266;52.340;4.962;2022-10-16T17:14:09;0.25;;;0.25;;
36221;SDS011;22266;52.340;4.962;2022-10-16T17:16:36;1.00;;;1.00;;
36221;SDS011;22266;52.340;4.962;2022-10-16T17:19:05;0.75;;;0.75;;
36221;SDS011;22266;52.340;4.962;2022-10-16T17:21:33;4.50;;;1.00;;
36221;SDS011;22266;52.340;4.962;2022-10-16T17:24:01;1.00;;;1.00;;
36221;SDS011;22266;52.340;4.962;2022-10-16T17:26:28;1.75;;;1.00;;